Time;durP1;ratioP1;P1;durP2;ratioP2;P2;SDS_P1;SDS_P2;PMS_P1;PMS_P2;Temp;Humidity;BMP_temperature;BMP_pressure;BME280_temperature;BME280_humidity;BME280_pressure;Samples;Min_cycle;Max_cycle;Signal;HPM_P1;HPM_P2
2022/09/17 00:00:27;;;;;;;;;;;;;;;12.60;100.00;97223.98;1700191;83;24503;-87
2022/09/17 00:02:55;;;;;;;;;;;;;;;12.59;100.00;97220.53;1696467;83;20525;-86
2022/09/17 00:05:22;;;;;;;;;;;;;;;12.60;100.00;97212.98;1664312;83;25121;-86
2022/09/17 00:07:52;;;;;;;;;;;;;;;12.58;100.00;97213.63;1682411;83;22757;-86
2022/09/17 00:10:19;;;;;;;;;;;;;;;12.58;100.00;97214.94;1665957;84;26010;-88
2022/09/17 00:12:50;;;;;;;;;;;;;;;12.58;100.00;97220.19;1671372;84;23808;-87
2022/09/17 00:15:16;;;;;;;;;;;;;;;12.56;100.00;97220.33;1672709;84;20226;-88
2022/09/17 00:17:43;;;;;;;;;;;;;;;12.55;100.00;97219.98;1669906;84;25049;-88
2022/09/17 00:20:09;;;;;;;;;;;;;;;12.53;100.00;97225.89;1688334;83;22885;-87
2022/09/17 00:22:36;;;;;;;;;;;;;;;12.51;100.00;97225.69;1654331;85;26002;-88
2022/09/17 00:25:02;;;;;;;;;;;;;;;12.49;100.00;97221.89;1687166;83;24443;-87
2022/09/17 00:27:29;;;;;;;;;;;;;;;12.48;100.00;97222.89;1683942;83;20486;-87
2022/09/17 00:29:58;;;;;;;;;;;;;;;12.49;100.00;97223.20;1693563;83;25058;-88
2022/09/17 00:32:29;;;;;;;;;;;;;;;12.50;100.00;97230.59;1691645;83;22055;-88
2022/09/17 00:34:55;;;;;;;;;;;;;;;12.47;100.00;97223.86;1696533;83;25988;-87
2022/09/17 00:37:21;;;;;;;;;;;;;;;12.43;100.00;97216.44;1695140;83;24407;-87
2022/09/17 00:39:53;;;;;;;;;;;;;;;12.41;100.00;97218.37;1696603;83;20472;-88
2022/09/17 00:42:20;;;;;;;;;;;;;;;12.39;100.00;97208.50;1694259;83;24972;-89
2022/09/17 00:44:53;;;;;;;;;;;;;;;12.38;100.00;97213.44;1695545;83;22856;-89
2022/09/17 00:47:24;;;;;;;;;;;;;;;12.36;100.00;97207.02;1696632;83;26055;-89
2022/09/17 00:49:52;;;;;;;;;;;;;;;12.36;100.00;97207.02;1690488;83;24569;-89
2022/09/17 00:52:20;;;;;;;;;;;;;;;12.33;100.00;97207.81;1692298;84;20228;-89
2022/09/17 00:54:49;;;;;;;;;;;;;;;12.30;100.00;97204.16;1690932;83;27086;-89
2022/09/17 00:57:15;;;;;;;;;;;;;;;12.31;100.00;97200.56;1696311;83;22167;-88
2022/09/17 00:59:41;;;;;;;;;;;;;;;12.31;100.00;97203.19;1692752;83;25940;-88
2022/09/17 01:02:07;;;;;;;;;;;;;;;12.29;100.00;97198.08;1678741;84;20250;-88
2022/09/17 01:04:34;;;;;;;;;;;;;;;12.27;100.00;97196.11;1654297;85;32488;-89
2022/09/17 01:07:11;;;;;;;;;;;;;;;12.29;100.00;97200.70;1655990;85;20715;-89
2022/09/17 01:09:39;;;;;;;;;;;;;;;12.30;100.00;97196.28;1682001;84;21967;-89
2022/09/17 01:12:07;;;;;;;;;;;;;;;12.27;100.00;97197.42;1664303;84;25998;-89
2022/09/17 01:14:38;;;;;;;;;;;;;;;12.24;100.00;97199.01;1700864;83;24584;-88
2022/09/17 01:17:23;;;;;;;;;;;;;;;12.22;100.00;97208.02;1698409;83;20301;-89
2022/09/17 01:20:05;;;;;;;;;;;;;;;12.16;100.00;97201.56;1703772;83;24992;-88
2022/09/17 01:22:50;;;;;;;;;;;;;;;12.14;100.00;97203.00;1709625;83;22220;-88
2022/09/17 01:25:18;;;;;;;;;;;;;;;12.12;100.00;97209.36;1701386;82;25970;-88
2022/09/17 01:28:03;;;;;;;;;;;;;;;12.13;100.00;97212.33;1709979;83;25243;-88
2022/09/17 01:30:37;;;;;;;;;;;;;;;12.12;100.00;97211.50;1685712;83;20254;-88
2022/09/17 01:33:11;;;;;;;;;;;;;;;12.05;100.00;97216.18;1677016;85;25019;-88
2022/09/17 01:35:48;;;;;;;;;;;;;;;12.02;100.00;97210.73;1669514;83;22235;-88
2022/09/17 01:38:16;;;;;;;;;;;;;;;12.01;100.00;97216.94;1702683;83;26261;-88
2022/09/17 01:40:47;;;;;;;;;;;;;;;12.01;100.00;97210.38;1697855;83;25279;-88
2022/09/17 01:43:26;;;;;;;;;;;;;;;12.01;100.00;97209.07;1703731;83;20286;-88
2022/09/17 01:46:00;;;;;;;;;;;;;;;12.00;100.00;97207.93;1682996;84;25180;-87
2022/09/17 01:48:28;;;;;;;;;;;;;;;11.97;100.00;97205.09;1702775;83;22011;-88
2022/09/17 01:50:55;;;;;;;;;;;;;;;11.91;100.00;97205.67;1706225;83;25498;-87
2022/09/17 01:53:23;;;;;;;;;;;;;;;11.87;100.00;97210.87;1711470;83;24426;-88
2022/09/17 01:55:52;;;;;;;;;;;;;;;11.87;100.00;97212.19;1699347;82;20288;-88
2022/09/17 01:58:22;;;;;;;;;;;;;;;11.87;100.00;97218.74;1693442;83;25906;-87
2022/09/17 02:00:54;;;;;;;;;;;;;;;11.92;100.00;97225.69;1706480;82;22780;-88
2022/09/17 02:03:22;;;;;;;;;;;;;;;11.93;100.00;97226.03;1716420;82;26152;-88
2022/09/17 02:05:50;;;;;;;;;;;;;;;11.98;100.00;97224.28;1713298;82;24461;-87
2022/09/17 02:08:18;;;;;;;;;;;;;;;11.96;100.00;97226.20;1708296;80;20497;-88
2022/09/17 02:10:46;;;;;;;;;;;;;;;11.92;100.00;97225.69;1712593;81;25039;-88
2022/09/17 02:13:14;;;;;;;;;;;;;;;11.92;100.00;97226.99;1720153;82;22123;-87
2022/09/17 02:15:42;;;;;;;;;;;;;;;11.88;100.00;97228.27;1707593;82;26026;-86
2022/09/17 02:18:13;;;;;;;;;;;;;;;11.87;100.00;97230.54;1711439;82;24416;-87
2022/09/17 02:20:45;;;;;;;;;;;;;;;11.85;100.00;97227.70;1679718;83;20257;-87
2022/09/17 02:23:13;;;;;;;;;;;;;;;11.81;100.00;97228.48;1679518;84;25095;-87
2022/09/17 02:25:42;;;;;;;;;;;;;;;11.78;100.00;97235.34;1679542;83;22066;-87
2022/09/17 02:28:12;;;;;;;;;;;;;;;11.74;100.00;97241.81;1681970;83;26925;-87
2022/09/17 02:30:39;;;;;;;;;;;;;;;11.71;100.00;97240.78;1688464;84;24440;-87
2022/09/17 02:33:08;;;;;;;;;;;;;;;11.72;100.00;97243.75;1667262;84;20376;-87
2022/09/17 02:35:36;;;;;;;;;;;;;;;11.74;100.00;97243.13;1668388;84;25761;-87
2022/09/17 02:38:04;;;;;;;;;;;;;;;11.70;100.00;97233.87;1665388;84;22605;-87
2022/09/17 02:40:32;;;;;;;;;;;;;;;11.69;100.00;97235.67;1667292;84;26078;-87
2022/09/17 02:43:12;;;;;;;;;;;;;;;11.68;100.00;97222.70;1640607;85;25359;-87
2022/09/17 02:45:52;;;;;;;;;;;;;;;11.66;100.00;97218.94;1667690;84;20308;-87
2022/09/17 02:48:38;;;;;;;;;;;;;;;11.64;100.00;97208.24;1690470;82;24966;-88
2022/09/17 02:51:08;;;;;;;;;;;;;;;11.63;100.00;97203.97;1714226;82;22228;-88
2022/09/17 02:53:45;;;;;;;;;;;;;;;11.62;100.00;97208.86;1711978;82;26682;-88
2022/09/17 02:56:16;;;;;;;;;;;;;;;11.60;100.00;97204.27;1713830;82;25191;-88
2022/09/17 02:59:04;;;;;;;;;;;;;;;11.56;100.00;97189.33;1715714;82;20287;-88
2022/09/17 03:01:44;;;;;;;;;;;;;;;11.55;100.00;97186.84;1725280;81;25369;-88
2022/09/17 03:04:14;;;;;;;;;;;;;;;11.55;100.00;97200.77;1724095;81;22141;-88
2022/09/17 03:06:43;;;;;;;;;;;;;;;11.56;100.00;97195.87;1729517;83;26257;-89
2022/09/17 03:09:15;;;;;;;;;;;;;;;11.55;100.00;97190.29;1727258;81;24489;-89
2022/09/17 03:11:42;;;;;;;;;;;;;;;11.57;100.00;97197.50;1725307;83;20165;-87
2022/09/17 03:14:08;;;;;;;;;;;;;;;11.57;100.00;97187.02;1727685;81;24955;-86
2022/09/17 03:16:34;;;;;;;;;;;;;;;11.57;100.00;97184.88;1728900;82;20284;-85
2022/09/17 03:19:01;;;;;;;;;;;;;;;11.60;100.00;97176.75;1727811;81;20919;-85
2022/09/17 03:21:27;;;;;;;;;;;;;;;11.60;100.00;97175.44;1727018;82;24446;-86
2022/09/17 03:23:53;;;;;;;;;;;;;;;11.59;100.00;97177.23;1727997;81;20357;-86
2022/09/17 03:26:20;;;;;;;;;;;;;;;11.56;100.00;97170.98;1727803;81;20271;-86
2022/09/17 03:28:46;;;;;;;;;;;;;;;11.56;100.00;97172.30;1728254;83;22090;-84
2022/09/17 03:31:12;;;;;;;;;;;;;;;11.53;100.00;97171.73;1726601;81;26148;-84
2022/09/17 03:33:38;;;;;;;;;;;;;;;11.54;100.00;97169.46;1728003;82;24391;-84
2022/09/17 03:36:04;;;;;;;;;;;;;;;11.53;100.00;97168.63;1726439;81;20236;-85
2022/09/17 03:38:32;;;;;;;;;;;;;;;11.50;100.00;97164.17;1726629;81;25196;-84
2022/09/17 03:40:59;;;;;;;;;;;;;;;11.47;100.00;97156.59;1725600;81;22002;-85
2022/09/17 03:43:26;;;;;;;;;;;;;;;11.40;100.00;97145.85;1726288;81;26930;-85
2022/09/17 03:45:52;;;;;;;;;;;;;;;11.36;100.00;97147.59;1727437;81;24523;-85
2022/09/17 03:48:19;;;;;;;;;;;;;;;11.33;100.00;97149.55;1689544;83;20346;-85
2022/09/17 03:50:45;;;;;;;;;;;;;;;11.35;100.00;97149.91;1685432;83;24982;-85
2022/09/17 03:53:11;;;;;;;;;;;;;;;11.31;100.00;97145.41;1670606;84;21346;-85
2022/09/17 03:55:37;;;;;;;;;;;;;;;11.27;100.00;97156.67;1665018;84;21058;-85
2022/09/17 03:58:03;;;;;;;;;;;;;;;11.27;100.00;97149.30;1669728;84;24474;-85
2022/09/17 04:00:29;;;;;;;;;;;;;;;11.24;100.00;97151.70;1676140;83;20314;-85
2022/09/17 04:02:55;;;;;;;;;;;;;;;11.23;100.00;97161.03;1659810;86;20340;-85
2022/09/17 04:05:23;;;;;;;;;;;;;;;11.21;100.00;97161.64;1657492;85;20221;-85
2022/09/17 04:07:51;;;;;;;;;;;;;;;11.16;100.00;97157.32;1637834;86;26254;-85
2022/09/17 04:10:18;;;;;;;;;;;;;;;11.10;100.00;97146.92;1659349;86;24506;-85
2022/09/17 04:12:44;;;;;;;;;;;;;;;11.07;100.00;97155.08;1659258;86;20246;-84
2022/09/17 04:15:10;;;;;;;;;;;;;;;11.05;100.00;97157.00;1637330;85;20233;-84
2022/09/17 04:17:36;;;;;;;;;;;;;;;11.05;100.00;97145.70;1659815;86;20280;-85
2022/09/17 04:20:05;;;;;;;;;;;;;;;11.05;100.00;97147.84;1659559;85;21081;-85
2022/09/17 04:22:31;;;;;;;;;;;;;;;11.06;100.00;97149.49;1659648;84;24675;-85
2022/09/17 04:24:57;;;;;;;;;;;;;;;11.09;100.00;97153.13;1659755;85;20272;-85
2022/09/17 04:27:23;;;;;;;;;;;;;;;11.13;100.00;97153.66;1659434;85;25252;-85
2022/09/17 04:29:49;;;;;;;;;;;;;;;11.17;100.00;97158.49;1659483;85;20991;-85
2022/09/17 04:32:15;;;;;;;;;;;;;;;11.21;100.00;97163.78;1693240;83;25977;-85
2022/09/17 04:34:41;;;;;;;;;;;;;;;11.24;100.00;97170.03;1671119;84;24422;-85
2022/09/17 04:37:07;;;;;;;;;;;;;;;11.29;100.00;97170.94;1659302;84;20235;-85
2022/09/17 04:39:33;;;;;;;;;;;;;;;11.32;100.00;97166.23;1658948;84;25041;-84
2022/09/17 04:41:59;;;;;;;;;;;;;;;11.31;100.00;97161.95;1638636;85;22997;-84
2022/09/17 04:44:25;;;;;;;;;;;;;;;11.29;100.00;97162.56;1660237;84;20941;-84
2022/09/17 04:46:51;;;;;;;;;;;;;;;11.27;100.00;97156.67;1659297;85;20237;-84
2022/09/17 04:49:17;;;;;;;;;;;;;;;11.30;100.00;97151.61;1659074;86;20285;-85
2022/09/17 04:51:43;;;;;;;;;;;;;;;11.32;100.00;97163.61;1659249;85;20692;-85
2022/09/17 04:54:09;;;;;;;;;;;;;;;11.35;100.00;97168.23;1659689;86;20824;-85
2022/09/17 04:56:35;;;;;;;;;;;;;;;11.35;100.00;97167.72;1661450;85;25909;-84
2022/09/17 04:59:01;;;;;;;;;;;;;;;11.35;100.00;97173.47;1659017;85;21440;-84
2022/09/17 05:01:27;;;;;;;;;;;;;;;11.31;100.00;97172.43;1657758;85;20824;-85
2022/09/17 05:03:53;;;;;;;;;;;;;;;11.25;100.00;97176.92;1657629;86;24934;-85
2022/09/17 05:06:19;;;;;;;;;;;;;;;11.21;100.00;97181.28;1660891;86;22787;-85
2022/09/17 05:08:46;;;;;;;;;;;;;;;11.18;100.00;97173.21;1660578;85;21122;-85
2022/09/17 05:11:12;;;;;;;;;;;;;;;11.19;100.00;97174.87;1660207;86;24489;-85
2022/09/17 05:13:39;;;;;;;;;;;;;;;11.16;100.00;97171.23;1663956;85;20339;-85
2022/09/17 05:16:05;;;;;;;;;;;;;;;11.15;100.00;97176.13;1661364;84;24949;-85
2022/09/17 05:18:31;;;;;;;;;;;;;;;11.17;100.00;97172.90;1661981;85;20828;-85
2022/09/17 05:20:57;;;;;;;;;;;;;;;11.20;100.00;97172.59;1694264;83;20944;-85
2022/09/17 05:23:23;;;;;;;;;;;;;;;11.21;100.00;97182.11;1694247;83;20285;-85
2022/09/17 05:25:49;;;;;;;;;;;;;;;11.22;100.00;97185.08;1692248;83;20243;-85
2022/09/17 05:28:15;;;;;;;;;;;;;;;11.22;100.00;97179.84;1692028;83;25746;-85
2022/09/17 05:30:41;;;;;;;;;;;;;;;11.22;100.00;97181.63;1694007;83;20249;-84
2022/09/17 05:33:07;;;;;;;;;;;;;;;11.23;100.00;97188.05;1688836;83;26171;-84
2022/09/17 05:35:36;;;;;;;;;;;;;;;11.27;100.00;97187.27;1689295;83;20269;-84
2022/09/17 05:38:04;;;;;;;;;;;;;;;11.26;100.00;97182.51;1692289;83;20483;-85
2022/09/17 05:40:31;;;;;;;;;;;;;;;11.29;100.00;97178.28;1691100;83;25019;-84
2022/09/17 05:43:00;;;;;;;;;;;;;;;11.35;100.00;97170.34;1690043;83;21993;-85
2022/09/17 05:45:28;;;;;;;;;;;;;;;11.40;100.00;97173.87;1694055;83;26119;-86
2022/09/17 05:47:56;;;;;;;;;;;;;;;11.47;100.00;97178.86;1694900;83;24437;-84
2022/09/17 05:50:22;;;;;;;;;;;;;;;11.54;100.00;97177.33;1662715;83;20347;-85
2022/09/17 05:52:49;;;;;;;;;;;;;;;11.55;100.00;97180.29;1682392;83;25031;-85
2022/09/17 05:55:15;;;;;;;;;;;;;;;11.53;100.00;97180.42;1678509;83;22097;-85
2022/09/17 05:57:41;;;;;;;;;;;;;;;11.58;100.00;97179.50;1669096;84;26008;-85
2022/09/17 06:00:08;;;;;;;;;;;;;;;11.62;100.00;97173.00;1641071;84;24393;-86
2022/09/17 06:02:37;;;;;;;;;;;;;;;11.69;100.00;97171.94;1693860;83;20220;-84
2022/09/17 06:05:04;;;;;;;;;;;;;;;11.78;100.00;97163.27;1694378;83;25068;-84
2022/09/17 06:07:30;;;;;;;;;;;;;;;11.85;100.00;97156.45;1690025;84;22080;-85
2022/09/17 06:09:56;;;;;;;;;;;;;;;11.93;100.00;97152.63;1645457;85;21782;-84
2022/09/17 06:12:22;;;;;;;;;;;;;;;12.01;100.00;97147.94;1687531;84;24392;-84
2022/09/17 06:14:48;;;;;;;;;;;;;;;12.06;100.00;97147.00;1689800;83;20254;-84
2022/09/17 06:17:14;;;;;;;;;;;;;;;12.11;100.00;97154.77;1693499;83;20401;-86
2022/09/17 06:19:41;;;;;;;;;;;;;;;12.21;100.00;97161.77;1689472;83;20856;-85
2022/09/17 06:22:07;;;;;;;;;;;;;;;12.23;100.00;97165.05;1653181;85;26055;-84
2022/09/17 06:24:33;;;;;;;;;;;;;;;12.23;100.00;97158.01;1694852;83;20290;-85
2022/09/17 06:27:02;;;;;;;;;;;;;;;12.21;100.00;97167.84;1644240;84;20160;-84
2022/09/17 06:29:28;;;;;;;;;;;;;;;12.22;100.00;97173.41;1686279;83;24993;-85
2022/09/17 06:31:56;;;;;;;;;;;;;;;12.23;100.00;97181.61;1693191;83;21897;-85
2022/09/17 06:34:22;;;;;;;;;;;;;;;12.21;100.00;97177.50;1640590;86;26053;-85
2022/09/17 06:36:48;;;;;;;;;;;;;;;12.20;100.00;97179.78;1645346;84;25268;-85
2022/09/17 06:39:18;;;;;;;;;;;;;;;12.21;100.00;97188.00;1692035;83;20324;-85
2022/09/17 06:41:47;;;;;;;;;;;;;;;12.24;100.00;97198.18;1689289;84;25022;-85
2022/09/17 06:44:19;;;;;;;;;;;;;;;12.26;100.00;97191.00;1688374;84;22939;-85
2022/09/17 06:46:46;;;;;;;;;;;;;;;12.32;100.00;97195.66;1689825;83;26010;-85
2022/09/17 06:49:16;;;;;;;;;;;;;;;12.33;100.00;97191.55;1692699;83;24411;-85
2022/09/17 06:51:42;;;;;;;;;;;;;;;12.35;100.00;97188.79;1690568;83;20629;-85
2022/09/17 06:54:09;;;;;;;;;;;;;;;12.34;100.00;97177.47;1691575;83;24943;-85
2022/09/17 06:56:35;;;;;;;;;;;;;;;12.35;100.00;97175.67;1690384;83;23041;-85
2022/09/17 06:59:01;;;;;;;;;;;;;;;12.33;100.00;97176.33;1690263;83;26069;-85
2022/09/17 07:01:32;;;;;;;;;;;;;;;12.33;100.00;97181.06;1690404;83;20338;-85
2022/09/17 07:03:58;;;;;;;;;;;;;;;12.33;100.00;97188.13;1659889;84;20222;-85
2022/09/17 07:06:25;;;;;;;;;;;;;;;12.31;100.00;97185.65;1685878;83;20364;-85
2022/09/17 07:08:54;;;;;;;;;;;;;;;12.31;100.00;97200.08;1682945;83;21971;-85
2022/09/17 07:11:20;;;;;;;;;;;;;;;12.32;100.00;97202.22;1690013;83;25831;-84
2022/09/17 07:13:46;;;;;;;;;;;;;;;12.36;100.00;97210.95;1656194;86;20441;-85
2022/09/17 07:16:12;;;;;;;;;;;;;;;12.40;100.00;97218.86;1678960;85;20182;-85
2022/09/17 07:18:39;;;;;;;;;;;;;;;12.47;100.00;97215.98;1672542;83;24947;-85
2022/09/17 07:21:10;;;;;;;;;;;;;;;12.52;100.00;97205.87;1671562;83;21985;-84
2022/09/17 07:23:36;;;;;;;;;;;;;;;12.61;100.00;97204.62;1680200;83;26002;-85
2022/09/17 07:26:07;;;;;;;;;;;;;;;12.66;100.00;97205.81;1664426;85;24609;-85
2022/09/17 07:28:34;;;;;;;;;;;;;;;12.67;100.00;97207.95;1668262;85;20290;-85
2022/09/17 07:31:01;;;;;;;;;;;;;;;12.70;100.00;97203.73;1671502;85;25010;-85
2022/09/17 07:33:28;;;;;;;;;;;;;;;12.73;100.00;97202.11;1692470;83;22130;-85
2022/09/17 07:35:55;;;;;;;;;;;;;;;12.77;100.00;97206.91;1693189;83;25951;-85
2022/09/17 07:38:22;;;;;;;;;;;;;;;12.79;100.00;97209.39;1682206;83;24441;-85
2022/09/17 07:41:04;;;;;;;;;;;;;;;12.83;100.00;97207.62;1684814;84;20216;-85
2022/09/17 07:43:31;;;;;;;;;;;;;;;12.80;100.00;97213.19;1682899;83;24971;-85
2022/09/17 07:45:58;;;;;;;;;;;;;;;12.79;100.00;97212.84;1684775;83;21532;-85
2022/09/17 07:48:30;;;;;;;;;;;;;;;12.79;100.00;97212.84;1682391;83;26046;-85
2022/09/17 07:50:56;;;;;;;;;;;;;;;12.85;100.00;97215.36;1677856;83;25214;-85
2022/09/17 07:53:23;;;;;;;;;;;;;;;12.87;100.00;97217.35;1687426;83;20576;-85
2022/09/17 07:55:53;;;;;;;;;;;;;;;12.87;100.00;97207.64;1661527;86;24997;-85
2022/09/17 07:58:29;;;;;;;;;;;;;;;12.89;100.00;97197.00;1691405;83;22141;-85
2022/09/17 08:01:07;;;;;;;;;;;;;;;12.90;100.00;97182.41;1661397;85;26218;-85
2022/09/17 08:03:34;;;;;;;;;;;;;;;12.96;100.00;97197.56;1689829;83;24441;-85
2022/09/17 08:06:13;;;;;;;;;;;;;;;12.99;100.00;97194.63;1657389;85;20753;-85
2022/09/17 08:08:40;;;;;;;;;;;;;;;13.06;100.00;97192.70;1659611;84;25041;-85
2022/09/17 08:11:07;;;;;;;;;;;;;;;13.18;100.00;97189.72;1655380;85;21979;-85
2022/09/17 08:13:36;;;;;;;;;;;;;;;13.25;100.00;97200.44;1691280;83;26044;-85
2022/09/17 08:16:05;;;;;;;;;;;;;;;13.31;100.00;97207.20;1691069;85;24581;-85
2022/09/17 08:18:36;;;;;;;;;;;;;;;13.36;100.00;97205.45;1683584;83;20307;-86
2022/09/17 08:21:03;;;;;;;;;;;;;;;13.38;100.00;97206.09;1686623;83;25265;-86
2022/09/17 08:23:30;;;;;;;;;;;;;;;13.42;100.00;97211.37;1682953;83;22114;-86
2022/09/17 08:25:58;;;;;;;;;;;;;;;13.43;100.00;97216.97;1679534;83;26033;-86
2022/09/17 08:28:24;;;;;;;;;;;;;;;13.37;100.00;97225.46;1688801;83;24406;-85
2022/09/17 08:30:52;;;;;;;;;;;;;;;13.36;100.00;97221.21;1659173;84;20326;-85
2022/09/17 08:33:19;;;;;;;;;;;;;;;13.45;100.00;97218.96;1679076;83;24961;-85
2022/09/17 08:35:58;;;;;;;;;;;;;;;13.49;100.00;97224.23;1680286;83;22057;-85
2022/09/17 08:38:22;;;;;;;;;;;;;;;13.54;100.00;97202.25;1678178;83;25929;-85
2022/09/17 08:41:01;;;;;;;;;;;;;;;13.62;100.00;97185.23;1680850;83;24567;-85
2022/09/17 08:43:30;;;;;;;;;;;;;;;13.67;100.00;97182.95;1690069;83;20260;-85
2022/09/17 08:45:57;;;;;;;;;;;;;;;13.68;100.00;97180.66;1684488;83;25356;-85
2022/09/17 08:48:25;;;;;;;;;;;;;;;13.69;100.00;97177.02;1687167;83;21980;-85
2022/09/17 08:50:51;;;;;;;;;;;;;;;13.70;100.00;97173.91;1685882;83;26009;-85
2022/09/17 08:53:23;;;;;;;;;;;;;;;13.66;100.00;97185.23;1681343;83;20290;-84
2022/09/17 08:56:08;;;;;;;;;;;;;;;13.67;100.00;97186.06;1677702;83;20231;-85
2022/09/17 08:58:59;;;;;;;;;;;;;;;13.64;100.00;97175.36;1685270;83;25762;-84
2022/09/17 09:01:36;;;;;;;;;;;;;;;13.69;100.00;97177.02;1688764;85;22055;-85
2022/09/17 09:04:20;;;;;;;;;;;;;;;13.78;100.00;97181.36;1683438;83;26142;-85
2022/09/17 09:07:05;;;;;;;;;;;;;;;13.85;100.00;97186.82;1719595;81;24462;-84
2022/09/17 09:09:33;;;;;;;;;;;;;;;13.96;100.00;97202.81;1700381;83;20329;-85
2022/09/17 09:12:01;;;;;;;;;;;;;;;14.06;100.00;97216.66;1678200;84;25089;-85
2022/09/17 09:14:29;;;;;;;;;;;;;;;14.11;100.00;97220.45;1692078;84;22109;-85
2022/09/17 09:16:56;;;;;;;;;;;;;;;14.21;100.00;97216.38;1653735;85;26003;-85
2022/09/17 09:19:23;;;;;;;;;;;;;;;14.29;100.00;97219.53;1659184;85;24402;-84
2022/09/17 09:22:03;;;;;;;;;;;;;;;14.30;100.00;97222.47;1655675;85;20278;-85
2022/09/17 09:24:31;;;;;;;;;;;;;;;14.29;100.00;97216.41;1655854;85;24960;-85
2022/09/17 09:27:02;;;;;;;;;;;;;;;14.31;100.00;97213.11;1589976;87;22082;-85
2022/09/17 09:29:35;;;;;;;;;;;;;;;14.35;100.00;97214.92;1661031;83;26891;-85
2022/09/17 09:32:21;;;;;;;;;;;;;;;14.44;100.00;97214.02;1683980;83;24511;-85
2022/09/17 09:34:48;;;;;;;;;;;;;;;14.54;100.00;97223.91;1688561;83;20247;-86
2022/09/17 09:37:19;;;;;;;;;;;;;;;14.63;100.00;97221.12;1686936;84;24987;-86
2022/09/17 09:39:46;;;;;;;;;;;;;;;14.72;100.00;97224.61;1681399;83;21932;-86
2022/09/17 09:42:24;;;;;;;;;;;;;;;14.78;100.00;97232.35;1681820;83;26042;-86
2022/09/17 09:44:50;;;;;;;;;;;;;;;14.81;100.00;97237.28;1687471;83;24554;-86
2022/09/17 09:47:23;;;;;;;;;;;;;;;14.81;100.00;97230.20;1726255;81;20582;-86
2022/09/17 09:50:09;;;;;;;;;;;;;;;14.85;100.00;97229.38;1732214;81;25074;-86
2022/09/17 09:52:47;;;;;;;;;;;;;;;14.89;100.00;97218.87;1724806;82;21597;-86
2022/09/17 09:55:23;;;;;;;;;;;;;;;14.94;100.00;97220.02;1729498;81;25938;-86
2022/09/17 09:57:51;;;;;;;;;;;;;;;14.96;100.00;97211.94;1728723;82;24664;-86
2022/09/17 10:00:28;;;;;;;;;;;;;;;15.05;100.00;97210.97;1734781;81;20357;-86
2022/09/17 10:02:56;;;;;;;;;;;;;;;15.12;100.00;97204.52;1687495;84;24961;-87
2022/09/17 10:05:27;;;;;;;;;;;;;;;15.19;100.00;97211.61;1669478;84;22109;-87
2022/09/17 10:07:52;;;;;;;;;;;;;;;15.26;100.00;97203.37;1685520;84;26283;-87
2022/09/17 10:10:18;;;;;;;;;;;;;;;15.30;100.00;97206.49;1637207;86;24405;-87
2022/09/17 10:12:44;;;;;;;;;;;;;;;15.36;100.00;97223.79;1642774;86;20461;-87
2022/09/17 10:15:23;;;;;;;;;;;;;;;15.37;100.00;97228.08;1641038;86;20273;-86
2022/09/17 10:17:51;;;;;;;;;;;;;;;15.35;100.00;97235.81;1667978;85;22027;-86
2022/09/17 10:20:20;;;;;;;;;;;;;;;15.31;100.00;97230.55;1648234;85;26125;-86
2022/09/17 10:22:47;;;;;;;;;;;;;;;15.33;100.00;97220.64;1690950;83;24393;-85
2022/09/17 10:25:26;;;;;;;;;;;;;;;15.29;100.00;97224.12;1693625;83;20296;-85
2022/09/17 10:27:52;;;;;;;;;;;;;;;15.28;100.00;97214.55;1691472;83;25247;-85
2022/09/17 10:30:23;;;;;;;;;;;;;;;15.26;100.00;97222.31;1676622;83;20887;-86
2022/09/17 10:33:00;;;;;;;;;;;;;;;15.21;100.00;97228.58;1683420;83;25964;-85
2022/09/17 10:35:27;;;;;;;;;;;;;;;15.18;100.00;97227.58;1616655;88;25261;-85
2022/09/17 10:37:53;;;;;;;;;;;;;;;15.15;100.00;97234.51;1679115;84;20519;-85
2022/09/17 10:40:21;;;;;;;;;;;;;;;15.10;100.00;97238.13;1672985;83;25165;-85
2022/09/17 10:42:50;;;;;;;;;;;;;;;15.04;100.00;97247.52;1673705;83;22220;-85
2022/09/17 10:45:27;;;;;;;;;;;;;;;15.02;100.00;97246.84;1685158;83;26924;-86
2022/09/17 10:47:54;;;;;;;;;;;;;;;15.01;100.00;97238.61;1676509;83;25182;-85
2022/09/17 10:50:22;;;;;;;;;;;;;;;15.00;100.00;97240.41;1690387;83;20333;-85
2022/09/17 10:52:54;;;;;;;;;;;;;;;14.99;100.00;97245.38;1660505;85;25077;-85
2022/09/17 10:55:22;;;;;;;;;;;;;;;14.95;100.00;97249.80;1691403;83;22077;-86
2022/09/17 10:57:54;;;;;;;;;;;;;;;14.87;100.00;97241.41;1691578;83;25988;-85
2022/09/17 11:00:32;;;;;;;;;;;;;;;14.85;100.00;97238.59;1686095;83;24421;-86
2022/09/17 11:03:00;;;;;;;;;;;;;;;14.83;100.00;97231.37;1674667;83;20248;-86
2022/09/17 11:05:31;;;;;;;;;;;;;;;14.83;100.00;97233.51;1679953;83;25708;-85
2022/09/17 11:07:58;;;;;;;;;;;;;;;14.88;100.00;97242.23;1681193;85;22121;-85
2022/09/17 11:10:36;;;;;;;;;;;;;;;14.92;100.00;97255.41;1675027;84;25972;-85
2022/09/17 11:13:13;;;;;;;;;;;;;;;14.93;100.00;97253.11;1676024;84;24621;-85
2022/09/17 11:15:42;;;;;;;;;;;;;;;14.90;100.00;97248.14;1656996;85;20514;-85
2022/09/17 11:18:09;;;;;;;;;;;;;;;14.89;100.00;97241.25;1673505;84;25191;-85
2022/09/17 11:20:49;;;;;;;;;;;;;;;14.92;100.00;97233.02;1673392;84;22173;-85
2022/09/17 11:23:34;;;;;;;;;;;;;;;14.93;100.00;97234.17;1672833;84;26856;-85
2022/09/17 11:26:14;;;;;;;;;;;;;;;14.97;100.00;97232.03;1679861;84;24515;-84
2022/09/17 11:28:47;;;;;;;;;;;;;;;15.00;100.00;97226.45;1678377;83;20243;-85
2022/09/17 11:31:15;;;;;;;;;;;;;;;14.97;100.00;97225.44;1680037;83;24969;-85
2022/09/17 11:33:54;;;;;;;;;;;;;;;14.97;100.00;97226.76;1674026;83;22024;-85
2022/09/17 11:36:27;;;;;;;;;;;;;;;15.00;100.00;97229.88;1679386;84;26154;-85
2022/09/17 11:39:01;;;;;;;;;;;;;;;15.06;100.00;97229.72;1673859;83;24501;-84
2022/09/17 11:41:29;;;;;;;;;;;;;;;15.16;100.00;97229.58;1672123;84;20471;-84
2022/09/17 11:44:14;;;;;;;;;;;;;;;15.20;100.00;97227.76;1679042;83;25059;-84
2022/09/17 11:46:49;;;;;;;;;;;;;;;15.23;100.00;97221.31;1677114;84;22058;-85
2022/09/17 11:49:31;;;;;;;;;;;;;;;15.27;100.00;97219.52;1678382;83;26808;-85
2022/09/17 11:52:00;;;;;;;;;;;;;;;15.31;100.00;97217.38;1677122;84;25293;-85
2022/09/17 11:54:30;;;;;;;;;;;;;;;15.33;100.00;97210.92;1668999;83;20209;-85
2022/09/17 11:56:58;;;;;;;;;;;;;;;15.38;100.00;97212.56;1676584;85;25084;-85
2022/09/17 11:59:43;;;;;;;;;;;;;;;15.40;100.00;97207.96;1679299;84;21974;-85
2022/09/17 12:02:11;;;;;;;;;;;;;;;15.40;100.00;97204.50;1675716;84;26038;-85
2022/09/17 12:04:41;;;;;;;;;;;;;;;15.45;100.00;97199.05;1691454;84;24507;-85
2022/09/17 12:07:10;;;;;;;;;;;;;;;15.44;100.00;97194.77;1700010;84;20287;-85
2022/09/17 12:09:40;;;;;;;;;;;;;;;15.42;100.00;97192.81;1705519;84;25168;-85
2022/09/17 12:12:07;;;;;;;;;;;;;;;15.42;100.00;97186.22;1704833;83;22022;-85
2022/09/17 12:14:35;;;;;;;;;;;;;;;15.48;100.00;97182.91;1708499;82;26208;-85
2022/09/17 12:17:02;;;;;;;;;;;;;;;15.55;100.00;97177.00;1705082;82;24479;-85
2022/09/17 12:19:38;;;;;;;;;;;;;;;15.59;100.00;97165.94;1709466;82;20283;-85
2022/09/17 12:22:14;;;;;;;;;;;;;;;15.63;100.00;97169.05;1706623;82;25018;-85
2022/09/17 12:24:42;;;;;;;;;;;;;;;15.67;100.00;97168.53;1725187;81;22811;-85
2022/09/17 12:27:09;;;;;;;;;;;;;;;15.72;100.00;97167.53;1723320;81;26060;-85
2022/09/17 12:29:43;;;;;;;;;;;;;;;15.80;100.00;97162.73;1725428;81;24390;-85
2022/09/17 12:32:28;;;;;;;;;;;;;;;15.85;100.00;97161.23;1725920;81;20229;-86
2022/09/17 12:35:09;;;;;;;;;;;;;;;15.91;100.00;97155.77;1729476;81;25193;-85
2022/09/17 12:37:53;;;;;;;;;;;;;;;15.92;100.00;97150.82;1724526;81;22014;-85
2022/09/17 12:40:39;;;;;;;;;;;;;;;15.92;100.00;97151.31;1726318;82;26057;-85
2022/09/17 12:43:27;;;;;;;;;;;;;;;15.89;100.00;97145.87;1725864;81;24448;-85
2022/09/17 12:45:53;;;;;;;;;;;;;;;15.89;100.00;97145.38;1725199;82;20509;-85
2022/09/17 12:48:31;;;;;;;;;;;;;;;15.88;100.00;97144.22;1727442;81;24883;-85